San Francisco, California
Traffic Map
Current Weather Conditions
San Francisco, California
Scattered Clouds
Scattered Clouds
18°
Feels Like: 18°
Wind Chill: 18° Ceiling: Unl
Heat Index: 18° Visibility: 10mi
Dew Point: 14° Wind: 22mph
Humidity: 78% Direction: 290° (WNW)
Pressure: 29.89in Gusts: 0mph
Raw Report DataKSFO 010156Z 29019KT 10SM FEW006 SCT200 18/14 A2989 RMK AO2 SLP121 T01780139 $
Traffic Incident Summary
Active as of:
Severity:
Category:
InformationThere was an issue retrieving the traffic information for this location. Please try a different location or try again shortly.
Advertisements
Track Severe Weather on mobile